CYJT

Stephenville Airport

Stephenville, Canada
METAR CYJT 140000Z 28009KT 15SM BKN025 M03/M09 A3021 RMK SC6 SLP232
Observed Flight Rules
Dec-14 @ 00:00 UTC (45 minutes ago) Marginal Visual Flight Rules
Wind Visibility Clouds
280° at 9 knots 15 miles
  • Broken at 2,500' AGL
Temperatures Readings
Current -3°C / 27°F
Dewpoint -9°C / 16°F
Humidity 64%
Altimeter 30.21" Hg
Pressure 1023.2 hPa
Elevation 26
METAR CYJT 140000Z 28009KT 15SM BKN025 M03/M09 A3021 RMK SC6 SLP232
Observed Flight Rules
Dec-14 @ 00:00 UTC
(45 minutes ago)
MVFR
Wind Visibility
280° at 9 knots 15 miles
Clouds
  • Broken at 2,500' AGL
Temperature Dewpoint
-3°C / 27°F -9°C / 16°F
Humidity Altimeter Pressure
64% 30.21" Hg 1023.2 hPa